createdAt,value
2019-01-28T00:01:26.176Z,9.63
2019-01-28T00:03:52.479Z,9.62
2019-01-28T00:06:18.783Z,9.62
2019-01-28T00:08:45.096Z,9.61
2019-01-28T00:11:11.405Z,9.57
2019-01-28T00:13:37.723Z,9.51
2019-01-28T00:16:04.029Z,9.46
2019-01-28T00:18:30.336Z,9.38
2019-01-28T00:20:56.644Z,9.30
2019-01-28T00:23:22.952Z,9.36
2019-01-28T00:25:49.266Z,9.40
2019-01-28T00:28:15.571Z,9.41
2019-01-28T00:30:41.893Z,9.41
2019-01-28T00:33:08.188Z,9.42
2019-01-28T00:35:34.547Z,9.40
2019-01-28T00:38:00.851Z,9.38
2019-01-28T00:40:27.161Z,9.38
2019-01-28T00:42:53.480Z,9.37
2019-01-28T00:45:19.787Z,9.36
2019-01-28T00:47:46.100Z,9.35
2019-01-28T00:50:12.405Z,9.33
2019-01-28T00:52:38.745Z,9.32
2019-01-28T00:55:05.049Z,9.32
2019-01-28T00:57:31.357Z,9.30
2019-01-28T00:59:57.725Z,9.23
2019-01-28T01:02:24.032Z,9.14
2019-01-28T01:04:50.341Z,9.07
2019-01-28T01:07:16.657Z,9.05
2019-01-28T01:09:42.968Z,9.11
2019-01-28T01:12:09.280Z,9.14
2019-01-28T01:14:35.593Z,9.14
2019-01-28T01:17:01.902Z,9.15
2019-01-28T01:19:28.208Z,9.17
2019-01-28T01:21:54.520Z,9.16
2019-01-28T01:24:20.815Z,9.16
2019-01-28T01:26:47.133Z,9.18
2019-01-28T01:29:13.432Z,9.20
2019-01-28T01:31:39.748Z,9.20
2019-01-28T01:34:06.050Z,9.19
2019-01-28T01:36:32.359Z,9.17
2019-01-28T01:38:58.669Z,9.15
2019-01-28T01:41:24.971Z,9.16
2019-01-28T01:43:51.288Z,9.13
2019-01-28T01:46:17.601Z,9.06
2019-01-28T01:48:43.905Z,8.99
2019-01-28T01:51:10.207Z,8.88
2019-01-28T01:53:36.515Z,8.93
2019-01-28T01:56:02.815Z,8.98
2019-01-28T01:58:29.121Z,8.99
2019-01-28T02:00:55.427Z,9.00
2019-01-28T02:03:21.738Z,9.00
2019-01-28T02:05:48.036Z,9.01
2019-01-28T02:08:14.373Z,9.01
2019-01-28T02:10:40.649Z,9.01
2019-01-28T02:13:06.965Z,9.03
2019-01-28T02:15:33.273Z,9.03
2019-01-28T02:17:59.581Z,9.03
2019-01-28T02:20:25.893Z,9.01
2019-01-28T02:22:52.227Z,9.02
2019-01-28T02:25:18.543Z,8.97
2019-01-28T02:27:44.853Z,9.00
2019-01-28T02:30:11.169Z,8.96
2019-01-28T02:32:37.476Z,8.92
2019-01-28T02:35:03.787Z,8.84
2019-01-28T02:37:30.092Z,8.77
2019-01-28T02:39:56.402Z,8.80
2019-01-28T02:42:22.705Z,8.86
2019-01-28T02:44:49.013Z,8.90
2019-01-28T02:47:15.321Z,8.92
2019-01-28T02:49:41.634Z,8.92
2019-01-28T02:52:07.941Z,8.90
2019-01-28T02:54:34.252Z,8.91
2019-01-28T02:57:00.565Z,8.92
2019-01-28T02:59:26.908Z,8.94
2019-01-28T03:01:53.217Z,8.90
2019-01-28T03:04:19.533Z,8.93
2019-01-28T03:06:45.847Z,8.93
2019-01-28T03:09:12.159Z,8.93
2019-01-28T03:11:38.465Z,8.90
2019-01-28T03:14:04.773Z,8.92
2019-01-28T03:16:31.077Z,8.85
2019-01-28T03:18:57.390Z,8.78
2019-01-28T03:21:23.693Z,8.73
2019-01-28T03:23:50.008Z,8.66
2019-01-28T03:26:16.315Z,8.72
2019-01-28T03:28:42.623Z,8.75
2019-01-28T03:31:08.934Z,8.78
2019-01-28T03:33:35.339Z,8.79
2019-01-28T03:36:01.545Z,8.82
2019-01-28T03:38:27.866Z,8.82
2019-01-28T03:40:54.168Z,8.78
2019-01-28T03:43:20.477Z,8.80
2019-01-28T03:45:46.785Z,8.81
2019-01-28T03:48:13.119Z,8.81
2019-01-28T03:50:39.427Z,8.82
2019-01-28T03:53:05.735Z,8.82
2019-01-28T03:55:32.037Z,8.83
2019-01-28T03:57:58.336Z,8.80
2019-01-28T04:00:24.646Z,8.81
2019-01-28T04:02:50.958Z,8.71
2019-01-28T04:05:17.255Z,8.67
2019-01-28T04:07:43.560Z,8.59
2019-01-28T04:10:09.869Z,8.54
2019-01-28T04:12:36.177Z,8.61
2019-01-28T04:15:02.491Z,8.64
2019-01-28T04:17:28.806Z,8.66
2019-01-28T04:19:55.117Z,8.66
2019-01-28T04:22:21.407Z,8.70
2019-01-28T04:24:47.722Z,8.71
2019-01-28T04:27:14.025Z,8.72
2019-01-28T04:29:40.334Z,8.72
2019-01-28T04:32:06.640Z,8.73
2019-01-28T04:34:32.949Z,8.72
2019-01-28T04:36:59.256Z,8.72
2019-01-28T04:39:25.559Z,8.73
2019-01-28T04:41:51.863Z,8.73
2019-01-28T04:44:18.246Z,8.71
2019-01-28T04:46:44.470Z,8.69
2019-01-28T04:49:10.784Z,8.58
2019-01-28T04:51:37.089Z,8.51
2019-01-28T04:54:03.394Z,8.45
2019-01-28T04:56:29.703Z,8.39
2019-01-28T04:58:56.026Z,8.35
2019-01-28T05:01:22.314Z,8.31
2019-01-28T05:03:48.615Z,8.26
2019-01-28T05:06:14.923Z,8.28
2019-01-28T05:08:41.229Z,8.26
2019-01-28T05:11:07.535Z,8.25
2019-01-28T05:13:33.841Z,8.23
2019-01-28T05:16:00.149Z,8.21
2019-01-28T05:18:26.452Z,8.18
2019-01-28T05:20:52.762Z,8.18
2019-01-28T05:23:19.063Z,8.15
2019-01-28T05:25:45.373Z,8.11
2019-01-28T05:28:11.675Z,8.11
2019-01-28T05:30:38.000Z,8.08
2019-01-28T05:33:04.305Z,8.08
2019-01-28T05:35:30.612Z,8.07
2019-01-28T05:37:56.918Z,8.07
2019-01-28T05:40:23.224Z,8.06
2019-01-28T05:42:49.527Z,8.07
2019-01-28T05:45:15.840Z,8.05
2019-01-28T05:47:42.144Z,8.03
2019-01-28T05:50:08.499Z,8.01
2019-01-28T05:52:34.813Z,7.98
2019-01-28T05:55:01.172Z,8.06
2019-01-28T05:57:27.514Z,8.38
2019-01-28T05:59:53.827Z,8.46
2019-01-28T06:02:20.132Z,8.48
2019-01-28T06:04:46.435Z,8.48
2019-01-28T06:07:12.743Z,8.47
2019-01-28T06:09:39.051Z,8.46
2019-01-28T06:12:05.375Z,8.45
2019-01-28T06:14:31.685Z,8.47
2019-01-28T06:16:57.987Z,8.49
2019-01-28T06:19:24.292Z,8.51
2019-01-28T06:21:50.605Z,8.55
2019-01-28T06:24:16.918Z,8.54
2019-01-28T06:26:43.236Z,8.55
2019-01-28T06:29:09.575Z,8.57
2019-01-28T06:31:36.038Z,8.57
2019-01-28T06:34:02.350Z,8.57
2019-01-28T06:36:28.653Z,8.53
2019-01-28T06:38:54.956Z,8.46
2019-01-28T06:41:21.262Z,8.38
2019-01-28T06:43:47.566Z,8.37
2019-01-28T06:46:13.883Z,8.40
2019-01-28T06:48:40.196Z,8.46
2019-01-28T06:51:06.505Z,8.49
2019-01-28T06:53:32.811Z,8.55
2019-01-28T06:55:59.115Z,8.57
2019-01-28T06:58:25.423Z,8.59
2019-01-28T07:00:51.733Z,8.65
2019-01-28T07:03:18.036Z,8.71
2019-01-28T07:05:44.349Z,8.75
2019-01-28T07:08:10.662Z,8.79
2019-01-28T07:10:36.968Z,8.82
2019-01-28T07:13:03.277Z,8.86
2019-01-28T07:15:29.588Z,8.88
2019-01-28T07:17:55.894Z,8.92
2019-01-28T07:20:22.196Z,8.94
2019-01-28T07:22:48.506Z,8.88
2019-01-28T07:25:14.814Z,8.85
2019-01-28T07:27:41.202Z,8.80
2019-01-28T07:30:07.505Z,8.84
2019-01-28T07:32:33.811Z,8.93
2019-01-28T07:35:00.258Z,9.03
2019-01-28T07:37:26.423Z,9.12
2019-01-28T07:39:52.727Z,9.21
2019-01-28T07:42:19.037Z,9.30
2019-01-28T07:44:45.471Z,9.37
2019-01-28T07:47:11.780Z,9.43
2019-01-28T07:49:38.090Z,9.51
2019-01-28T07:52:04.390Z,9.57
2019-01-28T07:54:30.725Z,9.62
2019-01-28T07:56:57.029Z,9.66
2019-01-28T07:59:23.334Z,9.71
2019-01-28T08:01:49.638Z,9.77
2019-01-28T08:04:15.950Z,9.86
2019-01-28T08:06:42.256Z,9.94
2019-01-28T08:09:08.558Z,9.92
2019-01-28T08:11:34.869Z,9.85
2019-01-28T08:14:01.178Z,9.83
2019-01-28T08:16:27.484Z,9.95
2019-01-28T08:18:53.793Z,10.04
2019-01-28T08:21:20.100Z,10.13
2019-01-28T08:23:46.414Z,10.15
2019-01-28T08:26:12.729Z,10.14
2019-01-28T08:28:39.049Z,10.19
2019-01-28T08:31:05.354Z,10.18
2019-01-28T08:33:31.665Z,10.21
2019-01-28T08:35:57.971Z,10.23
2019-01-28T08:38:24.457Z,10.26
2019-01-28T08:40:50.592Z,10.27
2019-01-28T08:43:16.899Z,10.27
2019-01-28T08:45:43.213Z,10.22
2019-01-28T08:48:09.550Z,10.32
2019-01-28T08:50:35.855Z,10.33
2019-01-28T08:53:02.171Z,10.33
2019-01-28T08:55:28.476Z,10.24
2019-01-28T08:57:54.793Z,10.16
2019-01-28T09:00:21.095Z,10.14
2019-01-28T09:02:47.407Z,10.24
2019-01-28T09:05:13.712Z,10.31
2019-01-28T09:07:40.028Z,10.44
2019-01-28T09:10:06.332Z,10.54
2019-01-28T09:12:32.640Z,10.62
2019-01-28T09:14:58.947Z,10.65
2019-01-28T09:17:25.257Z,10.76
2019-01-28T09:19:51.565Z,10.84
2019-01-28T09:22:17.879Z,10.94
2019-01-28T09:24:44.186Z,11.05
2019-01-28T09:27:10.496Z,11.20
2019-01-28T09:29:36.803Z,11.37
2019-01-28T09:32:03.114Z,11.56
2019-01-28T09:34:29.426Z,11.77
2019-01-28T09:36:55.744Z,12.00
2019-01-28T09:39:22.050Z,12.16
2019-01-28T09:41:48.356Z,12.25
2019-01-28T09:44:14.665Z,12.33
2019-01-28T09:46:40.975Z,12.40
2019-01-28T09:49:07.284Z,12.44
2019-01-28T09:51:33.605Z,12.48
2019-01-28T09:53:59.921Z,12.56
2019-01-28T09:56:26.219Z,12.62
2019-01-28T09:58:52.528Z,12.69
2019-01-28T10:01:18.834Z,12.67
2019-01-28T10:03:45.140Z,12.54
2019-01-28T10:06:11.450Z,12.49
2019-01-28T10:08:37.759Z,12.62
2019-01-28T10:11:04.067Z,12.86
2019-01-28T10:13:30.376Z,13.08
2019-01-28T10:15:56.697Z,13.28
2019-01-28T10:18:23.008Z,13.46
2019-01-28T10:20:49.317Z,13.68
2019-01-28T10:23:15.640Z,14.01
2019-01-28T10:25:41.943Z,14.32
2019-01-28T10:28:08.249Z,14.61
2019-01-28T10:30:34.585Z,14.92
2019-01-28T10:33:00.928Z,15.12
2019-01-28T10:35:27.292Z,15.29
2019-01-28T10:37:53.547Z,15.43
2019-01-28T10:40:19.861Z,15.58
2019-01-28T10:42:46.173Z,15.82
2019-01-28T10:45:12.490Z,16.13
2019-01-28T10:47:38.793Z,16.36
2019-01-28T10:50:05.101Z,16.61
2019-01-28T10:52:31.418Z,16.79
2019-01-28T10:54:57.732Z,16.83
2019-01-28T10:57:24.037Z,16.87
2019-01-28T10:59:50.349Z,16.70
2019-01-28T11:02:16.659Z,16.75
2019-01-28T11:04:42.973Z,16.65
2019-01-28T11:07:09.281Z,16.63
2019-01-28T11:09:35.692Z,16.72
2019-01-28T11:12:02.027Z,16.63
2019-01-28T11:14:28.327Z,16.69
2019-01-28T11:16:54.566Z,16.68
2019-01-28T11:19:20.973Z,16.63
2019-01-28T11:21:47.263Z,16.54
2019-01-28T11:24:13.565Z,16.46
2019-01-28T11:26:39.942Z,16.34
2019-01-28T11:29:06.240Z,16.22
2019-01-28T11:31:32.475Z,16.08
2019-01-28T11:33:58.904Z,15.93
2019-01-28T11:36:25.238Z,15.78
2019-01-28T11:38:51.564Z,15.66
2019-01-28T11:41:17.721Z,15.55
2019-01-28T11:43:44.094Z,15.42
2019-01-28T11:46:10.392Z,15.28
2019-01-28T11:48:36.713Z,15.07
2019-01-28T11:51:02.980Z,14.87
2019-01-28T11:53:29.298Z,14.84
2019-01-28T11:55:55.610Z,14.84
2019-01-28T11:58:21.917Z,14.85
2019-01-28T12:00:48.227Z,14.86
2019-01-28T12:03:14.552Z,14.84
2019-01-28T12:05:40.865Z,14.84
2019-01-28T12:08:07.168Z,14.79
2019-01-28T12:10:33.476Z,14.78
2019-01-28T12:12:59.785Z,14.79
2019-01-28T12:15:26.102Z,14.80
2019-01-28T12:17:52.408Z,14.75
2019-01-28T12:20:18.769Z,14.76
2019-01-28T12:22:45.085Z,14.74
2019-01-28T12:25:11.403Z,14.73
2019-01-28T12:27:37.716Z,14.72
2019-01-28T12:30:04.026Z,14.71
2019-01-28T12:32:30.338Z,14.68
2019-01-28T12:34:56.643Z,14.68
2019-01-28T12:37:22.955Z,14.65
2019-01-28T12:39:49.756Z,14.64
2019-01-28T12:42:16.085Z,14.63
2019-01-28T12:44:42.785Z,14.62
2019-01-28T12:47:09.088Z,14.60
2019-01-28T12:49:35.396Z,14.59
2019-01-28T12:52:01.708Z,14.58
2019-01-28T12:54:28.012Z,14.48
2019-01-28T12:56:54.322Z,14.40
2019-01-28T12:59:20.627Z,14.45
2019-01-28T13:01:46.945Z,14.50
2019-01-28T13:04:13.251Z,14.52
2019-01-28T13:06:39.567Z,14.53
2019-01-28T13:09:05.887Z,14.52
2019-01-28T13:11:32.192Z,14.49
2019-01-28T13:13:58.498Z,14.45
2019-01-28T13:16:24.808Z,14.42
2019-01-28T13:18:51.121Z,14.40
2019-01-28T13:21:17.450Z,14.39
2019-01-28T13:23:43.754Z,14.40
2019-01-28T13:26:10.057Z,14.40
2019-01-28T13:28:36.367Z,14.42
2019-01-28T13:31:02.676Z,14.43
2019-01-28T13:33:28.978Z,14.41
2019-01-28T13:35:55.281Z,14.38
2019-01-28T13:38:21.583Z,14.36
2019-01-28T13:40:47.890Z,14.33
2019-01-28T13:43:14.224Z,14.29
2019-01-28T13:45:40.552Z,14.24
2019-01-28T13:48:06.878Z,14.21
2019-01-28T13:50:33.200Z,14.18
2019-01-28T13:52:59.509Z,14.16
2019-01-28T13:55:25.815Z,14.11
2019-01-28T13:57:52.128Z,14.06
2019-01-28T14:00:18.445Z,13.96
2019-01-28T14:02:44.752Z,13.91
2019-01-28T14:05:11.066Z,13.91
2019-01-28T14:07:37.402Z,13.93
2019-01-28T14:10:03.703Z,13.92
2019-01-28T14:12:30.008Z,13.91
2019-01-28T14:14:56.315Z,13.89
2019-01-28T14:17:22.633Z,13.88
2019-01-28T14:19:48.946Z,13.84
2019-01-28T14:22:15.251Z,13.82
2019-01-28T14:24:41.583Z,13.78
2019-01-28T14:27:07.885Z,13.75
2019-01-28T14:29:34.202Z,13.70
2019-01-28T14:32:00.506Z,13.68
2019-01-28T14:34:26.818Z,13.63
2019-01-28T14:36:53.119Z,13.60
2019-01-28T14:39:19.497Z,13.56
2019-01-28T14:41:45.798Z,13.52
2019-01-28T14:44:13.535Z,13.46
2019-01-28T14:46:38.620Z,13.44
2019-01-28T14:49:04.923Z,13.42
2019-01-28T14:51:31.231Z,13.36
2019-01-28T14:53:57.564Z,13.32
2019-01-28T14:56:23.885Z,13.27
2019-01-28T14:58:50.254Z,13.19
2019-01-28T15:01:16.581Z,13.16
2019-01-28T15:03:42.903Z,13.07
2019-01-28T15:06:09.232Z,13.00
2019-01-28T15:08:35.571Z,12.98
2019-01-28T15:11:01.974Z,12.98
2019-01-28T15:13:28.293Z,12.99
2019-01-28T15:15:54.627Z,12.97
2019-01-28T15:18:20.966Z,12.96
2019-01-28T15:20:47.289Z,12.94
2019-01-28T15:23:13.702Z,12.89
2019-01-28T15:25:40.033Z,12.84
2019-01-28T15:28:06.358Z,12.85
2019-01-28T15:30:32.742Z,12.82
2019-01-28T15:32:59.065Z,12.79
2019-01-28T15:35:25.434Z,12.76
2019-01-28T15:37:51.778Z,12.76
2019-01-28T15:40:18.095Z,12.75
2019-01-28T15:42:44.427Z,12.74
2019-01-28T15:45:11.373Z,12.74
2019-01-28T15:47:37.112Z,12.70
2019-01-28T15:50:10.548Z,12.69
2019-01-28T15:52:29.770Z,12.67
2019-01-28T15:54:56.098Z,12.67
2019-01-28T15:57:22.430Z,12.65
2019-01-28T15:59:48.756Z,12.58
2019-01-28T16:02:15.085Z,12.49
2019-01-28T16:04:41.434Z,12.43
2019-01-28T16:07:07.753Z,12.39
2019-01-28T16:09:34.081Z,12.39
2019-01-28T16:12:00.419Z,12.39
2019-01-28T16:14:26.742Z,12.39
2019-01-28T16:16:53.073Z,12.40
2019-01-28T16:19:19.399Z,12.37
2019-01-28T16:21:45.708Z,12.36
2019-01-28T16:24:12.037Z,12.35
2019-01-28T16:26:38.369Z,12.34
2019-01-28T16:29:04.691Z,12.33
2019-01-28T16:31:31.038Z,12.31
2019-01-28T16:33:57.359Z,12.30
2019-01-28T16:36:23.679Z,12.29
2019-01-28T16:38:50.005Z,12.24
2019-01-28T16:41:16.322Z,12.23
2019-01-28T16:43:42.647Z,12.19
2019-01-28T16:46:08.968Z,12.14
2019-01-28T16:48:35.302Z,12.08
2019-01-28T16:51:01.630Z,12.02
2019-01-28T16:53:27.956Z,11.98
2019-01-28T16:55:54.275Z,11.98
2019-01-28T16:58:20.624Z,11.98
2019-01-28T17:00:46.947Z,11.99
2019-01-28T17:03:13.274Z,11.99
2019-01-28T17:05:39.597Z,11.96
2019-01-28T17:08:05.928Z,11.96
2019-01-28T17:10:32.252Z,11.95
2019-01-28T17:12:58.587Z,11.92
2019-01-28T17:15:24.905Z,11.91
2019-01-28T17:17:51.229Z,11.90
2019-01-28T17:20:17.546Z,11.89
2019-01-28T17:22:43.879Z,11.89
2019-01-28T17:25:10.200Z,11.88
2019-01-28T17:27:36.532Z,11.88
2019-01-28T17:30:02.862Z,11.87
2019-01-28T17:32:29.185Z,11.85
2019-01-28T17:34:55.506Z,11.78
2019-01-28T17:37:21.832Z,11.73
2019-01-28T17:39:48.203Z,11.70
2019-01-28T17:42:14.541Z,11.71
2019-01-28T17:44:40.831Z,11.74
2019-01-28T17:47:07.166Z,11.75
2019-01-28T17:49:33.488Z,11.76
2019-01-28T17:51:59.808Z,11.75
2019-01-28T17:54:26.136Z,11.74
2019-01-28T17:56:52.468Z,11.74
2019-01-28T17:59:18.802Z,11.75
2019-01-28T18:01:45.140Z,11.74
2019-01-28T18:04:11.470Z,11.72
2019-01-28T18:06:37.790Z,11.72
2019-01-28T18:09:04.120Z,11.71
2019-01-28T18:11:30.474Z,11.66
2019-01-28T18:13:56.795Z,11.64
2019-01-28T18:16:23.236Z,11.65
2019-01-28T18:18:49.517Z,11.61
2019-01-28T18:21:15.836Z,11.55
2019-01-28T18:23:42.165Z,11.50
2019-01-28T18:26:08.491Z,11.48
2019-01-28T18:28:34.824Z,11.49
2019-01-28T18:31:01.150Z,11.51
2019-01-28T18:33:27.507Z,11.51
2019-01-28T18:35:53.849Z,11.53
2019-01-28T18:38:20.173Z,11.53
2019-01-28T18:40:46.528Z,11.51
2019-01-28T18:43:12.889Z,11.52
2019-01-28T18:45:39.306Z,11.50
2019-01-28T18:48:05.629Z,11.50
2019-01-28T18:50:31.957Z,11.50
2019-01-28T18:52:58.275Z,11.47
2019-01-28T18:55:24.638Z,11.47
2019-01-28T18:57:51.017Z,11.47
2019-01-28T19:00:17.334Z,11.47
2019-01-28T19:02:43.794Z,11.55
2019-01-28T19:05:10.126Z,11.82
2019-01-28T19:07:37.378Z,11.77
2019-01-28T19:10:03.713Z,11.64
2019-01-28T19:12:30.039Z,11.53
2019-01-28T19:14:56.396Z,11.44
2019-01-28T19:17:23.614Z,11.34
2019-01-28T19:19:49.042Z,11.32
2019-01-28T19:22:15.377Z,11.27
2019-01-28T19:24:41.703Z,11.23
2019-01-28T19:27:08.040Z,11.19
2019-01-28T19:29:34.371Z,11.17
2019-01-28T19:32:00.807Z,11.13
2019-01-28T19:34:27.141Z,11.13
2019-01-28T19:36:53.485Z,11.07
2019-01-28T19:39:19.820Z,11.04
2019-01-28T19:41:46.149Z,11.02
2019-01-28T19:44:12.475Z,11.00
2019-01-28T19:46:38.801Z,10.99
2019-01-28T19:49:05.134Z,10.97
2019-01-28T19:51:31.474Z,10.94
2019-01-28T19:53:57.808Z,10.92
2019-01-28T19:56:24.144Z,10.90
2019-01-28T19:58:50.464Z,10.87
2019-01-28T20:01:16.800Z,10.85
2019-01-28T20:03:43.126Z,10.81
2019-01-28T20:06:09.462Z,10.83
2019-01-28T20:08:35.806Z,10.80
2019-01-28T20:11:03.107Z,10.76
2019-01-28T20:13:29.426Z,10.76
2019-01-28T20:15:55.754Z,10.73
2019-01-28T20:18:22.079Z,10.72
2019-01-28T20:20:48.411Z,10.70
2019-01-28T20:23:14.761Z,10.68
2019-01-28T20:25:41.057Z,10.67
2019-01-28T20:28:07.382Z,10.66
2019-01-28T20:30:33.703Z,10.63
2019-01-28T20:33:00.040Z,10.62
2019-01-28T20:35:26.380Z,10.60
2019-01-28T20:37:52.699Z,10.58
2019-01-28T20:40:19.063Z,10.57
2019-01-28T20:42:45.469Z,10.55
2019-01-28T20:45:12.537Z,10.52
2019-01-28T20:47:38.912Z,10.51
2019-01-28T20:50:06.157Z,10.50
2019-01-28T20:52:32.512Z,10.49
2019-01-28T20:54:58.875Z,10.47
2019-01-28T20:57:25.264Z,10.44
2019-01-28T20:59:51.827Z,10.43
2019-01-28T21:02:18.136Z,10.40
2019-01-28T21:04:44.500Z,10.40
2019-01-28T21:07:10.806Z,10.39
2019-01-28T21:09:37.141Z,10.37
2019-01-28T21:12:03.566Z,10.36
2019-01-28T21:14:29.905Z,10.33
2019-01-28T21:16:56.216Z,10.33
2019-01-28T21:19:22.515Z,10.32
2019-01-28T21:21:48.895Z,10.30
2019-01-28T21:24:15.263Z,10.29
2019-01-28T21:26:41.574Z,10.27
2019-01-28T21:29:07.915Z,10.24
2019-01-28T21:31:34.245Z,10.24
2019-01-28T21:34:00.570Z,10.23
2019-01-28T21:36:26.896Z,10.22
2019-01-28T21:38:53.221Z,10.20
2019-01-28T21:41:19.576Z,10.17
2019-01-28T21:43:45.918Z,10.16
2019-01-28T21:46:12.241Z,10.13
2019-01-28T21:48:38.587Z,10.11
2019-01-28T21:51:04.949Z,10.11
2019-01-28T21:53:31.272Z,10.07
2019-01-28T21:55:57.611Z,10.06
2019-01-28T21:58:23.989Z,10.04
2019-01-28T22:00:50.308Z,10.02
2019-01-28T22:03:16.630Z,9.99
2019-01-28T22:05:42.972Z,10.00
2019-01-28T22:08:09.291Z,9.99
2019-01-28T22:10:35.632Z,9.98
2019-01-28T22:13:01.958Z,9.97
2019-01-28T22:15:28.285Z,9.97
2019-01-28T22:17:54.602Z,9.96
2019-01-28T22:20:20.961Z,9.93
2019-01-28T22:22:47.297Z,9.93
2019-01-28T22:25:13.610Z,9.90
2019-01-28T22:27:39.953Z,9.90
2019-01-28T22:30:06.264Z,9.89
2019-01-28T22:32:32.590Z,9.89
2019-01-28T22:34:58.924Z,9.83
2019-01-28T22:37:25.251Z,9.87
2019-01-28T22:39:51.573Z,9.87
2019-01-28T22:42:21.397Z,9.88
2019-01-28T22:44:44.236Z,9.86
2019-01-28T22:47:10.563Z,9.83
2019-01-28T22:49:36.890Z,9.86
2019-01-28T22:52:07.987Z,9.85
2019-01-28T22:54:29.546Z,9.84
2019-01-28T22:56:55.873Z,9.83
2019-01-28T22:59:22.196Z,9.82
2019-01-28T23:01:48.526Z,9.82
2019-01-28T23:04:14.844Z,9.80
2019-01-28T23:06:41.172Z,9.79
2019-01-28T23:09:07.515Z,9.78
2019-01-28T23:11:33.841Z,9.77
2019-01-28T23:14:00.177Z,9.76
2019-01-28T23:16:26.508Z,9.75
2019-01-28T23:18:52.820Z,9.74
2019-01-28T23:21:19.145Z,9.73
2019-01-28T23:23:45.478Z,9.72
2019-01-28T23:26:11.796Z,9.73
2019-01-28T23:28:38.131Z,9.69
2019-01-28T23:31:04.461Z,9.73
2019-01-28T23:33:30.779Z,9.72
2019-01-28T23:35:57.092Z,9.71
2019-01-28T23:38:23.428Z,9.71
2019-01-28T23:40:49.756Z,9.70
2019-01-28T23:43:16.072Z,9.70
2019-01-28T23:45:42.398Z,9.68
2019-01-28T23:48:08.723Z,9.67
2019-01-28T23:50:35.048Z,9.66
2019-01-28T23:53:01.381Z,9.66
2019-01-28T23:55:27.707Z,9.65
2019-01-28T23:57:56.793Z,9.65
